createdAt,value
2019-06-07T00:00:38.242Z,15.40
2019-06-07T00:04:34.453Z,15.30
2019-06-07T00:08:39.439Z,15.30
2019-06-07T00:12:44.350Z,15.20
2019-06-07T00:16:49.358Z,15.10
2019-06-07T00:20:54.295Z,15.10
2019-06-07T00:24:59.508Z,15.30
2019-06-07T00:29:04.639Z,15.20
2019-06-07T00:33:11.045Z,15.20
2019-06-07T00:37:17.104Z,15.00
2019-06-07T00:41:23.168Z,14.90
2019-06-07T00:45:28.080Z,14.80
2019-06-07T00:49:41.032Z,14.70
2019-06-07T00:53:39.871Z,14.70
2019-06-07T00:57:44.868Z,14.80
2019-06-07T01:01:49.787Z,14.90
2019-06-07T01:05:54.803Z,15.00
2019-06-07T01:09:59.910Z,14.90
2019-06-07T01:14:06.001Z,14.80
2019-06-07T01:18:36.123Z,14.70
2019-06-07T01:22:19.723Z,14.80
2019-06-07T01:26:26.943Z,14.60
2019-06-07T01:30:31.486Z,14.50
2019-06-07T01:34:36.438Z,14.50
2019-06-07T01:38:41.447Z,14.40
2019-06-07T01:42:49.567Z,14.40
2019-06-07T01:46:54.706Z,14.40
2019-06-07T01:50:59.772Z,14.30
2019-06-07T01:55:05.148Z,14.20
2019-06-07T01:59:10.094Z,14.10
2019-06-07T02:03:15.076Z,14.10
2019-06-07T02:07:26.913Z,13.90
2019-06-07T02:11:31.808Z,13.80
2019-06-07T02:15:36.958Z,13.80
2019-06-07T02:19:41.917Z,13.80
2019-06-07T02:23:46.818Z,13.80
2019-06-07T02:27:51.754Z,13.70
2019-06-07T02:31:56.673Z,13.70
2019-06-07T02:36:01.590Z,13.60
2019-06-07T02:40:07.673Z,13.50
2019-06-07T02:44:12.727Z,13.50
2019-06-07T02:48:17.686Z,13.50
2019-06-07T02:52:27.200Z,13.50
2019-06-07T02:56:52.223Z,13.40
2019-06-07T03:01:03.795Z,13.50
2019-06-07T03:04:51.229Z,13.30
2019-06-07T03:08:56.970Z,13.30
2019-06-07T03:13:02.625Z,13.30
2019-06-07T03:17:21.843Z,13.20
2019-06-07T03:21:28.153Z,13.20
2019-06-07T03:25:39.886Z,13.20
2019-06-07T03:29:44.969Z,13.20
2019-06-07T03:33:49.898Z,13.10
2019-06-07T03:37:54.837Z,13.00
2019-06-07T03:42:06.469Z,13.10
2019-06-07T03:46:06.609Z,13.10
2019-06-07T03:50:11.836Z,13.20
2019-06-07T03:54:16.730Z,13.30
2019-06-07T03:58:48.590Z,13.30
2019-06-07T04:02:30.241Z,13.30
2019-06-07T04:06:36.821Z,13.40
2019-06-07T04:10:59.081Z,13.50
2019-06-07T04:15:11.868Z,13.60
2019-06-07T04:19:16.890Z,13.70
2019-06-07T04:23:28.077Z,13.80
2019-06-07T04:27:28.390Z,13.90
2019-06-07T04:31:34.466Z,13.90
2019-06-07T04:35:43.125Z,14.00
2019-06-07T04:39:47.848Z,14.00
2019-06-07T04:43:53.417Z,14.10
2019-06-07T04:47:59.427Z,14.20
2019-06-07T04:52:06.048Z,14.30
2019-06-07T04:56:11.016Z,14.50
2019-06-07T05:00:48.702Z,14.60
2019-06-07T05:04:26.211Z,14.70
2019-06-07T05:08:33.334Z,15.00
2019-06-07T05:12:43.027Z,15.10
2019-06-07T05:16:44.754Z,15.10
2019-06-07T05:20:49.775Z,15.30
2019-06-07T05:24:54.735Z,15.40
2019-06-07T05:28:59.702Z,15.50
2019-06-07T05:33:05.465Z,15.70
2019-06-07T05:37:12.077Z,15.80
2019-06-07T05:41:17.004Z,15.80
2019-06-07T05:45:28.983Z,15.90
2019-06-07T05:49:37.870Z,16.00
2019-06-07T05:53:42.438Z,16.00
2019-06-07T05:57:50.991Z,16.20
2019-06-07T06:02:02.861Z,16.20
2019-06-07T06:06:00.294Z,16.40
2019-06-07T06:10:05.760Z,16.50
2019-06-07T06:14:10.736Z,16.60
2019-06-07T06:18:15.708Z,16.70
2019-06-07T06:22:20.669Z,16.80
2019-06-07T06:26:25.630Z,16.80
2019-06-07T06:30:30.773Z,16.80
2019-06-07T06:34:39.439Z,17.00
2019-06-07T06:38:43.888Z,17.20
2019-06-07T06:42:50.531Z,17.40
2019-06-07T06:46:58.084Z,17.50
2019-06-07T06:51:02.167Z,17.60
2019-06-07T06:55:07.430Z,17.80
2019-06-07T06:59:37.607Z,17.90
2019-06-07T07:07:28.410Z,18.20
2019-06-07T07:11:52.252Z,18.40
2019-06-07T07:15:47.481Z,18.50
2019-06-07T07:19:52.985Z,18.60
2019-06-07T07:24:21.544Z,18.70
2019-06-07T07:28:05.024Z,18.80
2019-06-07T07:32:09.991Z,18.80
2019-06-07T07:36:35.628Z,19.00
2019-06-07T07:40:56.163Z,19.10
2019-06-07T07:44:28.145Z,19.30
2019-06-07T07:48:33.064Z,19.50
2019-06-07T07:52:38.074Z,19.80
2019-06-07T07:56:45.305Z,19.90
2019-06-07T08:00:56.997Z,20.00
2019-06-07T08:09:03.959Z,20.80
2019-06-07T08:13:24.732Z,21.20
2019-06-07T08:17:15.468Z,21.90
2019-06-07T08:21:25.374Z,22.30
2019-06-07T08:25:26.983Z,22.70
2019-06-07T08:29:44.402Z,23.00
2019-06-07T08:33:38.463Z,23.00
2019-06-07T08:38:14.712Z,23.00
2019-06-07T08:41:59.833Z,23.50
2019-06-07T08:46:02.198Z,23.70
2019-06-07T08:50:07.741Z,24.60
2019-06-07T08:54:22.193Z,26.30
2019-06-07T08:58:16.504Z,28.30
2019-06-07T09:02:24.112Z,29.10
2019-06-07T09:07:01.835Z,29.90
2019-06-07T09:10:34.540Z,29.60
2019-06-07T09:14:58.963Z,29.60
2019-06-07T09:18:46.090Z,30.20
2019-06-07T09:22:51.129Z,29.70
2019-06-07T09:26:57.698Z,28.50
2019-06-07T09:31:06.921Z,30.20
2019-06-07T09:35:16.630Z,31.50
2019-06-07T09:39:16.331Z,32.30
2019-06-07T09:47:32.442Z,31.90
2019-06-07T09:51:34.342Z,32.20
2019-06-07T09:55:39.242Z,31.40
2019-06-07T09:59:44.271Z,32.90
2019-06-07T10:03:49.203Z,33.40
2019-06-07T10:08:07.639Z,32.50
2019-06-07T10:12:00.719Z,33.30
2019-06-07T10:16:06.968Z,34.10
2019-06-07T10:20:12.969Z,32.90
2019-06-07T10:24:17.886Z,32.80
2019-06-07T10:28:22.826Z,34.20
2019-06-07T10:32:27.737Z,34.20
2019-06-07T10:36:32.687Z,35.30
2019-06-07T10:40:37.671Z,35.00
2019-06-07T10:44:42.702Z,33.10
2019-06-07T10:48:47.637Z,32.40
2019-06-07T10:52:52.601Z,33.60
2019-06-07T10:56:57.516Z,34.60
2019-06-07T11:01:03.366Z,31.60
2019-06-07T11:05:10.094Z,30.60
2019-06-07T11:09:15.199Z,30.00
2019-06-07T11:13:20.124Z,31.80
2019-06-07T11:17:25.069Z,32.80
2019-06-07T11:21:30.093Z,33.30
2019-06-07T11:25:35.059Z,32.70
2019-06-07T11:29:39.996Z,32.70
2019-06-07T11:33:44.924Z,33.90
2019-06-07T11:37:49.872Z,35.60
2019-06-07T11:41:54.853Z,36.60
2019-06-07T11:45:59.801Z,36.90
2019-06-07T11:50:07.170Z,36.20
2019-06-07T11:54:13.886Z,36.50
2019-06-07T11:58:21.749Z,36.30
2019-06-07T12:02:25.771Z,36.00
2019-06-07T12:06:30.690Z,37.00
2019-06-07T12:10:42.667Z,36.90
2019-06-07T12:14:42.282Z,37.20
2019-06-07T12:18:47.230Z,36.50
2019-06-07T12:22:52.246Z,37.40
2019-06-07T12:26:57.159Z,36.70
2019-06-07T12:31:02.153Z,37.20
2019-06-07T12:35:07.759Z,38.60
2019-06-07T12:39:13.822Z,37.20
2019-06-07T12:43:19.118Z,39.10
2019-06-07T12:47:24.262Z,39.50
2019-06-07T12:51:29.236Z,39.40
2019-06-07T12:55:34.216Z,39.40
2019-06-07T12:59:39.121Z,39.20
2019-06-07T13:03:44.024Z,38.60
2019-06-07T13:07:49.047Z,38.50
2019-06-07T13:11:53.983Z,39.80
2019-06-07T13:15:58.938Z,39.50
2019-06-07T13:20:03.986Z,40.30
2019-06-07T13:24:08.927Z,40.10
2019-06-07T13:28:13.928Z,40.30
2019-06-07T13:32:19.550Z,40.30
2019-06-07T13:36:24.671Z,39.40
2019-06-07T13:40:29.611Z,39.30
2019-06-07T13:44:34.661Z,38.50
2019-06-07T13:48:39.614Z,39.30
2019-06-07T13:52:45.278Z,40.10
2019-06-07T13:57:02.425Z,39.20
2019-06-07T14:00:57.889Z,39.00
2019-06-07T14:05:02.820Z,39.20
2019-06-07T14:09:08.372Z,39.40
2019-06-07T14:13:13.453Z,38.40
2019-06-07T14:17:18.393Z,39.30
2019-06-07T14:21:24.503Z,39.20
2019-06-07T14:25:29.645Z,40.80
2019-06-07T14:29:34.815Z,41.40
2019-06-07T14:33:39.780Z,40.00
2019-06-07T14:37:44.801Z,38.90
2019-06-07T14:42:07.691Z,37.50
2019-06-07T14:45:56.335Z,38.00
2019-06-07T14:50:01.304Z,38.90
2019-06-07T14:54:06.466Z,39.80
2019-06-07T14:58:11.426Z,40.10
2019-06-07T15:02:16.493Z,39.70
2019-06-07T15:06:21.493Z,38.80
2019-06-07T15:10:26.723Z,37.90
2019-06-07T15:14:33.430Z,38.40
2019-06-07T15:18:38.689Z,38.60
2019-06-07T15:22:43.650Z,38.60
2019-06-07T15:26:49.787Z,37.00
2019-06-07T15:30:54.810Z,37.30
2019-06-07T15:35:00.951Z,37.60
2019-06-07T15:39:08.685Z,38.00
2019-06-07T15:43:13.695Z,38.20
2019-06-07T15:47:18.667Z,37.50
2019-06-07T15:51:23.631Z,36.80
2019-06-07T15:55:28.576Z,37.50
2019-06-07T15:59:33.515Z,36.90
2019-06-07T16:03:39.723Z,36.60
2019-06-07T16:07:44.971Z,37.10
2019-06-07T16:11:49.936Z,36.50
2019-06-07T16:15:54.867Z,35.70
2019-06-07T16:19:59.948Z,33.30
2019-06-07T16:24:04.971Z,30.70
2019-06-07T16:28:09.931Z,29.90
2019-06-07T16:32:14.878Z,28.90
2019-06-07T16:36:19.931Z,28.10
2019-06-07T16:40:25.068Z,27.70
2019-06-07T16:44:30.032Z,27.50
2019-06-07T16:48:36.652Z,27.10
2019-06-07T16:52:42.033Z,27.00
2019-06-07T16:56:51.136Z,27.10
2019-06-07T17:00:54.089Z,26.80
2019-06-07T17:04:59.232Z,26.70
2019-06-07T17:09:05.379Z,26.60
2019-06-07T17:13:10.331Z,26.40
2019-06-07T17:17:15.520Z,26.20
2019-06-07T17:21:20.797Z,26.30
2019-06-07T17:25:26.435Z,26.10
2019-06-07T17:29:31.376Z,25.80
2019-06-07T17:33:36.308Z,25.60
2019-06-07T17:37:43.169Z,25.60
2019-06-07T17:41:56.211Z,25.50
2019-06-07T17:45:54.373Z,25.30
2019-06-07T17:49:59.319Z,25.00
2019-06-07T17:54:04.352Z,24.60
2019-06-07T17:58:09.285Z,24.20
2019-06-07T18:02:15.682Z,24.00
2019-06-07T18:06:21.026Z,23.70
2019-06-07T18:10:36.159Z,23.40
2019-06-07T18:14:41.290Z,23.10
2019-06-07T18:18:46.587Z,22.90
2019-06-07T18:22:51.781Z,22.60
2019-06-07T18:26:56.803Z,22.30
2019-06-07T18:31:02.045Z,22.10
2019-06-07T18:35:07.499Z,21.90
2019-06-07T18:39:13.724Z,21.70
2019-06-07T18:43:18.688Z,21.50
2019-06-07T18:47:23.603Z,21.20
2019-06-07T18:51:28.519Z,21.10
2019-06-07T18:55:33.491Z,20.80
2019-06-07T18:59:38.448Z,20.60
2019-06-07T19:03:46.805Z,20.40
2019-06-07T19:07:50.445Z,20.20
2019-06-07T19:11:55.457Z,19.90
2019-06-07T19:16:00.482Z,19.80
2019-06-07T19:20:06.038Z,19.60
2019-06-07T19:24:10.954Z,19.50
2019-06-07T19:28:16.134Z,19.30
2019-06-07T19:32:21.067Z,19.20
2019-06-07T19:36:26.011Z,19.00
2019-06-07T19:40:30.929Z,18.80
2019-06-07T19:44:35.951Z,18.70
2019-06-07T19:48:40.903Z,18.60
2019-06-07T19:52:48.156Z,18.40
2019-06-07T19:56:53.387Z,18.30
2019-06-07T20:00:59.609Z,18.20
2019-06-07T20:05:06.812Z,18.10
2019-06-07T20:09:11.433Z,18.00
2019-06-07T20:13:18.989Z,17.90
2019-06-07T20:17:22.922Z,17.90
2019-06-07T20:21:27.866Z,17.70
2019-06-07T20:25:32.755Z,17.70
2019-06-07T20:29:37.674Z,17.60
2019-06-07T20:33:42.571Z,17.40
2019-06-07T20:37:47.490Z,17.30
2019-06-07T20:41:52.449Z,17.20
2019-06-07T20:46:00.670Z,17.20
2019-06-07T20:50:04.116Z,17.10
2019-06-07T20:54:09.224Z,17.00
2019-06-07T20:58:14.178Z,16.90
2019-06-07T21:02:19.067Z,16.80
2019-06-07T21:06:23.991Z,16.80
2019-06-07T21:10:28.926Z,16.70
2019-06-07T21:14:33.847Z,16.60
2019-06-07T21:18:38.754Z,16.50
2019-06-07T21:22:43.668Z,16.50
2019-06-07T21:26:48.583Z,16.40
2019-06-07T21:30:53.520Z,16.30
2019-06-07T21:34:58.440Z,16.20
2019-06-07T21:39:04.098Z,16.10
2019-06-07T21:43:10.450Z,16.10
2019-06-07T21:47:15.619Z,16.00
2019-06-07T21:51:20.583Z,15.90
2019-06-07T21:55:25.511Z,15.90
2019-06-07T21:59:30.421Z,15.80
2019-06-07T22:03:35.327Z,15.70
2019-06-07T22:07:40.259Z,15.60
2019-06-07T22:11:45.168Z,15.60
2019-06-07T22:15:50.068Z,15.50
2019-06-07T22:19:55.023Z,15.50
2019-06-07T22:23:59.945Z,15.50
2019-06-07T22:28:06.015Z,15.50
2019-06-07T22:32:11.012Z,15.40
2019-06-07T22:36:16.077Z,15.30
2019-06-07T22:40:21.944Z,15.30
2019-06-07T22:44:26.859Z,15.20
2019-06-07T22:48:31.803Z,15.20
2019-06-07T22:52:36.698Z,15.20
2019-06-07T22:56:50.168Z,15.10
2019-06-07T23:00:55.077Z,15.00
2019-06-07T23:05:17.008Z,15.00
2019-06-07T23:09:21.934Z,14.90
2019-06-07T23:13:26.863Z,14.80
2019-06-07T23:17:31.759Z,14.80
2019-06-07T23:21:36.672Z,14.80
2019-06-07T23:25:41.600Z,14.70
2019-06-07T23:29:46.513Z,14.70
2019-06-07T23:33:51.476Z,14.60
2019-06-07T23:37:56.388Z,14.50
2019-06-07T23:42:01.334Z,14.50
2019-06-07T23:46:06.278Z,14.40
2019-06-07T23:50:11.558Z,14.50
2019-06-07T23:54:17.757Z,14.40
2019-06-07T23:58:22.767Z,14.40
